Time;durP1;ratioP1;P1;durP2;ratioP2;P2;SDS_P1;SDS_P2;PMS_P1;PMS_P2;Temp;Humidity;BMP_temperature;BMP_pressure;BME280_temperature;BME280_humidity;BME280_pressure;Samples;Min_cycle;Max_cycle;Signal;HPM_P1;HPM_P2
2022/06/23 00:00:17;;;;;;;5.47;2.35;;;;;;;21.55;42.54;100785.69;5026388;28;20044;-72
2022/06/23 00:02:44;;;;;;;6.43;2.45;;;;;;;21.52;42.35;100792.28;5022399;28;20057;-73
2022/06/23 00:05:17;;;;;;;7.72;2.40;;;;;;;21.51;42.14;100790.72;5019050;28;21148;-72
2022/06/23 00:07:50;;;;;;;6.88;2.25;;;;;;;21.51;41.93;100779.44;5035660;28;20827;-72
2022/06/23 00:10:22;;;;;;;5.82;2.17;;;;;;;21.53;41.70;100785.41;5024196;28;20167;-72
2022/06/23 00:12:49;;;;;;;4.00;2.33;;;;;;;21.54;41.69;100787.75;5015703;28;20053;-72
2022/06/23 00:15:20;;;;;;;6.03;2.78;;;;;;;21.49;42.08;100776.31;5023239;28;20053;-72
2022/06/23 00:18:00;;;;;;;10.65;2.30;;;;;;;21.46;42.13;100777.28;5014797;28;20045;-72
2022/06/23 00:20:29;;;;;;;6.55;2.65;;;;;;;21.37;42.06;100775.25;5021423;28;20049;-72
2022/06/23 00:23:03;;;;;;;3.78;2.20;;;;;;;21.35;42.58;100776.94;5016817;28;20057;-72
2022/06/23 00:25:52;;;;;;;5.93;2.17;;;;;;;21.33;42.38;100785.09;5022052;28;20049;-72
2022/06/23 00:28:21;;;;;;;8.07;1.98;;;;;;;21.27;42.44;100786.97;5021953;28;20158;-72
2022/06/23 00:30:55;;;;;;;9.55;2.30;;;;;;;21.22;42.31;100790.38;5026224;28;20383;-72
2022/06/23 00:33:27;;;;;;;3.15;2.08;;;;;;;21.17;43.33;100780.56;5025149;28;20045;-72
2022/06/23 00:35:56;;;;;;;4.78;2.42;;;;;;;21.13;42.25;100782.72;5023657;28;20063;-72
2022/06/23 00:38:28;;;;;;;7.53;2.55;;;;;;;21.05;43.07;100780.69;5016892;28;20168;-72
2022/06/23 00:40:57;;;;;;;4.93;2.30;;;;;;;21.06;42.59;100783.03;5017500;28;20069;-72
2022/06/23 00:43:25;;;;;;;8.32;2.47;;;;;;;21.03;42.50;100784.00;5029315;28;20831;-72
2022/06/23 00:46:09;;;;;;;6.70;2.78;;;;;;;21.00;43.67;100784.13;5019080;28;20056;-72
2022/06/23 00:48:51;;;;;;;5.15;2.40;;;;;;;20.99;43.81;100785.38;5024855;28;20761;-72
2022/06/23 00:51:26;;;;;;;6.25;2.67;;;;;;;20.96;43.80;100783.50;5023858;28;20707;-72
2022/06/23 00:54:02;;;;;;;8.48;2.58;;;;;;;20.90;43.57;100780.50;5024345;28;20155;-72
2022/06/23 00:56:51;;;;;;;10.90;2.60;;;;;;;20.88;44.11;100782.19;5013922;28;20065;-72
2022/06/23 01:00:17;;;;;;;5.35;2.88;;;;;;;20.82;44.39;100782.03;5016712;28;20151;-72
2022/06/23 01:03:04;;;;;;;4.82;2.40;;;;;;;20.76;44.50;100771.88;4958169;28;21113;-72
2022/06/23 01:06:17;;;;;;;5.57;2.38;;;;;;;20.74;44.91;100774.34;4961519;28;20054;-72
2022/06/23 01:08:54;;;;;;;7.28;2.30;;;;;;;20.72;44.56;100774.06;4946514;28;20050;-73
2022/06/23 01:11:28;;;;;;;7.45;2.58;;;;;;;20.68;44.75;100773.44;4961421;28;20101;-72
2022/06/23 01:14:20;;;;;;;5.78;2.38;;;;;;;20.60;44.84;100774.94;4953306;28;20061;-73
2022/06/23 01:16:52;;;;;;;4.20;2.42;;;;;;;20.57;44.36;100778.69;4960737;28;20084;-72
2022/06/23 01:19:37;;;;;;;6.93;2.85;;;;;;;20.56;44.49;100763.88;4960480;28;20074;-72
2022/06/23 01:22:12;;;;;;;6.50;2.28;;;;;;;20.51;45.25;100774.94;4963234;28;20157;-72
2022/06/23 01:25:05;;;;;;;4.03;2.45;;;;;;;20.46;45.69;100772.72;4964529;28;20120;-72
2022/06/23 01:27:49;;;;;;;5.70;2.72;;;;;;;20.42;45.92;100776.44;4966110;28;20042;-72
2022/06/23 01:30:20;;;;;;;6.70;2.30;;;;;;;20.39;45.35;100771.00;4962993;28;20109;-72
2022/06/23 01:33:06;;;;;;;5.13;2.60;;;;;;;20.32;46.57;100768.47;4981591;28;20045;-72
2022/06/23 01:35:38;;;;;;;;;;;;;;;20.30;47.28;100771.75;5028942;28;20053;-72
2022/06/23 01:38:15;;;;;;;6.28;3.05;;;;;;;20.25;46.62;100761.09;5048273;28;19931;-72
2022/06/23 01:40:56;;;;;;;9.10;3.00;;;;;;;20.22;46.80;100759.19;5020876;28;20053;-72
2022/06/23 01:43:36;;;;;;;9.48;3.53;;;;;;;20.17;46.37;100757.00;5024531;28;20044;-72
2022/06/23 01:46:22;;;;;;;8.15;3.15;;;;;;;20.12;47.57;100754.78;5014462;28;20041;-72
2022/06/23 01:49:10;;;;;;;;;;;;;;;20.09;48.16;100752.88;5023134;28;20049;-72
2022/06/23 01:51:49;;;;;;;8.10;2.85;;;;;;;20.06;47.64;100755.81;5023379;28;19927;-72
2022/06/23 01:54:24;;;;;;;9.90;3.53;;;;;;;20.05;47.00;100757.09;5026439;28;20041;-72
2022/06/23 01:56:57;;;;;;;8.65;3.45;;;;;;;20.02;47.37;100755.94;5024280;28;20048;-73
2022/06/23 01:59:54;;;;;;;5.28;2.70;;;;;;;19.99;48.21;100751.28;5025573;28;20080;-72
2022/06/23 02:02:48;;;;;;;9.70;3.20;;;;;;;19.93;49.09;100750.31;5040729;28;20502;-72
2022/06/23 02:05:21;;;;;;;6.85;3.20;;;;;;;19.89;47.39;100748.88;5043952;28;20410;-72
2022/06/23 02:08:07;;;;;;;7.47;3.28;;;;;;;19.83;49.10;100743.09;5039711;28;20076;-72
2022/06/23 02:10:52;;;;;;;11.18;3.67;;;;;;;19.83;49.02;100747.91;5046177;28;20604;-71
2022/06/23 02:13:26;;;;;;;10.13;3.58;;;;;;;19.79;48.35;100734.03;5035887;28;20091;-72
2022/06/23 02:16:00;;;;;;;7.38;3.42;;;;;;;19.77;49.07;100739.28;5042009;28;20444;-72
2022/06/23 02:18:46;;;;;;;6.97;3.25;;;;;;;19.75;49.01;100743.81;5047981;28;20111;-72
2022/06/23 02:21:21;;;;;;;9.95;3.28;;;;;;;19.76;49.14;100750.97;5044989;28;20201;-71
2022/06/23 02:24:05;;;;;;;8.93;3.40;;;;;;;19.74;50.28;100740.22;5047240;28;20049;-71
2022/06/23 02:26:41;;;;;;;10.02;3.75;;;;;;;19.71;49.39;100741.13;5041392;28;20051;-72
2022/06/23 02:29:44;;;;;;;7.07;3.58;;;;;;;19.66;50.75;100738.94;5040782;28;20049;-71
2022/06/23 02:32:17;;;;;;;8.73;3.13;;;;;;;19.65;49.48;100740.16;5031994;28;20041;-72
2022/06/23 02:34:52;;;;;;;10.45;3.53;;;;;;;19.58;50.97;100739.66;5043988;28;20049;-72
2022/06/23 02:37:50;;;;;;;10.05;3.33;;;;;;;19.54;51.65;100742.56;5047739;28;20049;-71
2022/06/23 02:40:31;;;;;;;7.55;3.13;;;;;;;19.53;51.04;100751.44;5037809;28;20044;-72
2022/06/23 02:43:03;;;;;;;11.68;3.15;;;;;;;19.51;49.81;100743.50;5043362;28;20044;-71
2022/06/23 02:45:42;;;;;;;14.88;3.90;;;;;;;19.48;50.93;100738.03;5044313;28;20053;-71
2022/06/23 02:48:21;;;;;;;9.60;3.65;;;;;;;19.43;52.21;100745.00;5039118;28;20053;-72
2022/06/23 02:51:03;;;;;;;10.27;3.50;;;;;;;19.36;52.29;100748.06;5036972;28;20508;-71
2022/06/23 02:53:45;;;;;;;10.85;3.78;;;;;;;19.36;52.56;100744.47;5043661;28;20103;-71
2022/06/23 02:56:39;;;;;;;11.73;3.40;;;;;;;19.31;52.74;100742.25;5047004;28;20055;-72
2022/06/23 02:59:13;;;;;;;9.85;4.20;;;;;;;19.29;52.61;100755.94;5042730;28;20128;-71
2022/06/23 03:01:52;;;;;;;7.40;3.10;;;;;;;19.27;53.07;100753.59;5042521;28;20127;-72
2022/06/23 03:04:26;;;;;;;8.75;3.63;;;;;;;19.27;52.05;100759.22;5045044;28;20048;-71
2022/06/23 03:07:20;;;;;;;9.02;3.90;;;;;;;19.24;53.04;100762.91;5045455;28;20480;-72
2022/06/23 03:09:53;;;;;;;7.15;3.50;;;;;;;19.24;52.91;100762.13;5045481;28;21597;-72
2022/06/23 03:12:35;;;;;;;7.25;3.38;;;;;;;19.12;54.74;100765.75;5041067;28;20048;-72
2022/06/23 03:15:21;;;;;;;14.27;4.05;;;;;;;19.11;54.67;100755.78;5039908;28;20523;-72
2022/06/23 03:18:02;;;;;;;10.77;3.92;;;;;;;19.13;54.60;100764.53;5038747;28;20084;-72
2022/06/23 03:21:12;;;;;;;10.65;3.67;;;;;;;19.10;55.12;100762.63;5050565;28;20062;-72
2022/06/23 03:23:54;;;;;;;6.32;3.38;;;;;;;19.06;54.54;100765.56;5038905;28;20168;-72
2022/06/23 03:26:25;;;;;;;9.32;3.65;;;;;;;19.03;55.12;100758.03;5045401;28;20044;-72
2022/06/23 03:29:07;;;;;;;7.32;3.30;;;;;;;18.99;55.32;100757.38;5041314;28;20045;-72
2022/06/23 03:32:05;;;;;;;9.27;4.15;;;;;;;18.94;56.65;100757.97;5036005;28;20063;-72
2022/06/23 03:34:38;;;;;;;9.68;3.72;;;;;;;18.92;56.50;100757.63;5036647;28;20772;-72
2022/06/23 03:37:12;;;;;;;12.02;3.72;;;;;;;18.88;57.17;100756.97;5041149;28;20144;-72
2022/06/23 03:42:33;;;;;;;9.05;4.25;;;;;;;18.86;56.60;100758.69;5037063;28;20076;-72
2022/06/23 03:45:41;;;;;;;10.93;3.85;;;;;;;18.83;58.97;100762.38;5044255;28;20075;-72
2022/06/23 03:48:17;;;;;;;9.02;4.13;;;;;;;18.82;57.10;100767.19;4976527;28;20577;-72
2022/06/23 03:50:48;;;;;;;8.23;3.63;;;;;;;18.80;57.69;100764.03;5034669;28;20053;-72
2022/06/23 03:53:24;;;;;;;12.57;4.30;;;;;;;18.78;58.63;100765.75;5040433;28;20144;-72
2022/06/23 03:55:56;;;;;;;9.70;4.50;;;;;;;18.79;57.63;100765.28;5043068;28;20045;-72
2022/06/23 03:58:28;;;;;;;8.90;3.95;;;;;;;18.79;57.84;100765.28;5039976;28;20052;-72
2022/06/23 04:01:19;;;;;;;11.27;4.47;;;;;;;18.74;59.38;100763.06;5041098;28;20044;-72
2022/06/23 04:03:51;;;;;;;10.68;4.18;;;;;;;18.75;58.42;100767.44;5039839;28;20045;-72
2022/06/23 04:06:42;;;;;;;13.35;4.38;;;;;;;18.76;58.01;100766.19;5045242;28;20049;-72
2022/06/23 04:09:28;;;;;;;11.48;4.60;;;;;;;18.78;59.23;100762.94;5038028;28;20144;-72
2022/06/23 04:12:21;;;;;;;14.32;4.97;;;;;;;18.82;58.33;100755.19;5041963;28;20061;-72
2022/06/23 04:14:54;;;;;;;11.00;4.13;;;;;;;18.83;58.87;100759.56;5038596;28;20080;-72
2022/06/23 04:17:46;;;;;;;10.77;4.43;;;;;;;18.82;60.04;100760.78;5045377;28;20049;-72
2022/06/23 04:20:18;;;;;;;10.88;4.57;;;;;;;18.83;59.61;100757.53;5061909;28;20137;-72
2022/06/23 04:22:57;;;;;;;11.75;4.18;;;;;;;18.85;59.97;100755.06;5039268;28;20056;-72
2022/06/23 04:25:37;;;;;;;11.50;4.10;;;;;;;18.90;60.29;100745.31;5044279;28;20053;-72
2022/06/23 04:28:03;;;;;;;11.75;4.85;;;;;;;18.95;59.51;100747.53;5044543;28;20045;-72
2022/06/23 04:30:38;;;;;;;9.50;4.18;;;;;;;18.97;59.90;100743.03;5038990;28;20775;-72
2022/06/23 04:33:13;;;;;;;8.18;4.28;;;;;;;19.02;59.57;100756.47;5043742;28;20371;-72
2022/06/23 04:35:40;;;;;;;12.57;5.00;;;;;;;19.03;60.09;100751.66;5043160;28;20143;-72
2022/06/23 04:38:32;;;;;;;11.02;5.13;;;;;;;19.09;60.76;100744.22;5031025;28;20152;-72
2022/06/23 04:41:11;;;;;;;12.98;4.97;;;;;;;19.10;60.29;100748.63;5039716;28;20053;-72
2022/06/23 04:43:48;;;;;;;15.18;5.13;;;;;;;19.19;61.47;100754.28;5048931;28;20567;-72
2022/06/23 04:46:19;;;;;;;11.23;4.65;;;;;;;19.24;60.64;100751.66;5045658;28;20451;-72
2022/06/23 04:49:00;;;;;;;14.40;5.22;;;;;;;19.32;61.03;100752.25;5042358;28;20061;-72
2022/06/23 04:51:34;;;;;;;15.35;5.32;;;;;;;19.36;60.33;100759.28;5044284;28;20049;-72
2022/06/23 04:54:09;;;;;;;13.13;4.40;;;;;;;19.42;61.00;100754.66;5046251;28;20172;-72
2022/06/23 04:57:04;;;;;;;16.75;5.45;;;;;;;19.54;60.70;100756.59;5039807;28;20156;-72
2022/06/23 04:59:40;;;;;;;11.15;4.55;;;;;;;19.62;60.48;100768.38;5051930;28;20052;-72
2022/06/23 05:02:21;;;;;;;10.32;4.18;;;;;;;19.70;60.79;100776.06;5044451;28;20501;-73
2022/06/23 05:05:01;;;;;;;11.85;5.07;;;;;;;19.77;60.59;100763.78;5041602;28;20118;-74
2022/06/23 05:07:42;;;;;;;13.70;5.13;;;;;;;19.88;60.58;100766.97;5049894;28;20049;-73
2022/06/23 05:10:20;;;;;;;13.45;4.90;;;;;;;19.96;59.84;100766.25;5045588;28;20577;-74
2022/06/23 05:13:03;;;;;;;10.27;4.63;;;;;;;20.06;59.65;100764.25;5051433;28;20140;-75
2022/06/23 05:16:05;;;;;;;11.75;4.93;;;;;;;20.12;60.48;100771.63;5050840;28;20061;-73
2022/06/23 05:18:38;;;;;;;11.80;4.45;;;;;;;20.19;59.59;100774.16;5045342;28;20126;-73
2022/06/23 05:21:10;;;;;;;13.13;5.32;;;;;;;20.24;58.96;100770.78;5044364;28;20088;-73
2022/06/23 05:23:39;;;;;;;15.88;5.10;;;;;;;20.35;58.73;100773.94;5037221;28;20052;-73
2022/06/23 05:26:13;;;;;;;13.43;5.50;;;;;;;20.42;58.53;100768.03;5053925;28;20128;-75
2022/06/23 05:28:43;;;;;;;9.97;4.60;;;;;;;20.54;58.45;100766.34;5044941;28;20379;-76
2022/06/23 05:31:19;;;;;;;13.82;4.85;;;;;;;20.63;58.66;100759.97;5050254;28;20059;-74
2022/06/23 05:33:50;;;;;;;13.35;4.88;;;;;;;20.73;58.33;100769.97;5050996;28;20139;-73
2022/06/23 05:36:31;;;;;;;12.43;4.97;;;;;;;20.78;58.92;100766.56;5052642;28;20080;-74
2022/06/23 05:39:04;;;;;;;13.70;4.78;;;;;;;20.90;57.32;100762.84;5042169;28;20054;-75
2022/06/23 05:41:42;;;;;;;12.95;4.90;;;;;;;20.96;58.05;100770.19;5048231;28;20082;-74
2022/06/23 05:44:25;;;;;;;17.27;5.45;;;;;;;21.04;58.16;100767.88;5051428;28;20150;-75
2022/06/23 05:46:55;;;;;;;13.48;4.82;;;;;;;21.14;57.48;100766.63;5049120;28;20080;-77
2022/06/23 05:49:30;;;;;;;9.65;4.30;;;;;;;21.22;57.31;100767.88;5049497;28;20120;-72
2022/06/23 05:52:07;;;;;;;12.98;4.38;;;;;;;21.30;57.35;100758.69;5049901;28;20053;-73
2022/06/23 05:54:55;;;;;;;9.80;4.05;;;;;;;21.37;57.35;100758.38;5050230;28;20128;-73
2022/06/23 05:57:33;;;;;;;12.65;4.28;;;;;;;21.46;56.92;100763.22;5049211;28;20131;-73
2022/06/23 06:00:14;;;;;;;15.30;5.15;;;;;;;21.53;56.22;100774.16;5041990;28;20057;-75
2022/06/23 06:03:16;;;;;;;14.45;4.78;;;;;;;21.62;56.90;100765.66;5048438;28;20359;-71
2022/06/23 06:05:47;;;;;;;13.95;4.45;;;;;;;21.71;56.65;100763.63;5043036;28;20537;-74
2022/06/23 06:08:20;;;;;;;10.82;4.60;;;;;;;21.81;56.61;100770.06;5052393;28;20045;-72
2022/06/23 06:10:47;;;;;;;17.15;4.53;;;;;;;21.90;55.63;100767.22;5047250;28;20593;-73
2022/06/23 06:13:20;;;;;;;13.43;4.40;;;;;;;22.00;56.21;100775.16;5048800;28;20722;-73
2022/06/23 06:15:50;;;;;;;11.45;4.60;;;;;;;22.09;55.57;100768.72;5049166;28;20453;-72
2022/06/23 06:18:19;;;;;;;14.18;4.18;;;;;;;22.18;55.20;100765.88;5050416;28;20521;-75
2022/06/23 06:20:46;;;;;;;12.85;4.55;;;;;;;22.27;55.09;100765.81;5043722;28;20053;-73
2022/06/23 06:23:25;;;;;;;12.90;4.32;;;;;;;22.35;55.14;100764.25;5047882;28;20045;-73
2022/06/23 06:25:53;;;;;;;18.13;4.70;;;;;;;22.47;54.47;100774.50;5046576;28;20493;-73
2022/06/23 06:28:23;;;;;;;16.58;4.38;;;;;;;22.55;54.81;100770.13;5044800;28;20537;-74
2022/06/23 06:31:11;;;;;;;16.63;4.80;;;;;;;22.67;55.01;100769.09;5049191;28;20144;-76
2022/06/23 06:33:53;;;;;;;14.20;4.30;;;;;;;22.77;54.74;100762.16;5047950;28;20053;-74
2022/06/23 06:36:54;;;;;;;13.48;4.25;;;;;;;22.88;54.13;100762.38;5045990;28;20107;-74
2022/06/23 06:39:26;;;;;;;13.75;4.68;;;;;;;;;;5021102;28;20045;-74
2022/06/23 06:42:09;;;;;;;11.02;3.90;;;;;;;23.15;53.75;100769.88;5042409;28;20136;-73
2022/06/23 06:44:42;;;;;;;10.73;4.00;;;;;;;23.24;53.23;100767.78;5041089;28;20154;-73
2022/06/23 06:47:18;;;;;;;17.00;4.55;;;;;;;23.31;53.56;100767.41;5048845;28;20072;-74
2022/06/23 06:49:46;;;;;;;10.77;3.60;;;;;;;23.40;52.71;100763.75;5048184;28;20107;-73
2022/06/23 06:52:13;;;;;;;15.50;4.38;;;;;;;23.50;52.50;100765.22;5045317;28;20072;-73
2022/06/23 06:54:46;;;;;;;14.73;4.07;;;;;;;23.57;52.72;100767.66;5032861;28;20840;-69
2022/06/23 06:57:22;;;;;;;18.48;4.05;;;;;;;23.65;52.80;100769.63;5043909;28;20575;-70
2022/06/23 07:00:11;;;;;;;11.30;3.55;;;;;;;23.75;53.07;100761.81;5047330;28;20729;-68
2022/06/23 07:02:45;;;;;;;14.18;3.88;;;;;;;23.86;52.79;100762.03;5043917;28;20139;-71
2022/06/23 07:05:24;;;;;;;19.83;4.20;;;;;;;23.97;52.67;100768.69;5045016;28;20143;-70
2022/06/23 07:07:57;;;;;;;22.90;4.13;;;;;;;24.07;52.19;100766.53;5052522;28;20102;-70
2022/06/23 07:10:35;;;;;;;10.52;3.40;;;;;;;24.15;52.04;100762.03;5046188;28;20047;-74
2022/06/23 07:13:09;;;;;;;11.70;3.72;;;;;;;24.22;51.64;100759.59;5046819;28;20095;-75
2022/06/23 07:15:40;;;;;;;11.90;4.07;;;;;;;24.31;51.19;100764.34;5045527;28;20122;-74
2022/06/23 07:18:31;;;;;;;11.40;4.13;;;;;;;24.43;51.33;100768.94;5050456;28;20132;-75
2022/06/23 07:21:04;;;;;;;12.43;4.10;;;;;;;24.54;50.93;100766.25;5043926;28;20051;-76
2022/06/23 07:23:42;;;;;;;15.63;4.10;;;;;;;24.61;50.78;100772.28;5044868;28;20045;-76
2022/06/23 07:26:15;;;;;;;15.40;4.68;;;;;;;24.70;50.31;100766.53;5042584;28;20166;-75
2022/06/23 07:28:47;;;;;;;10.73;4.13;;;;;;;24.83;50.32;100766.19;5045503;28;20049;-76
2022/06/23 07:31:20;;;;;;;13.48;4.15;;;;;;;24.92;50.13;100766.84;5045614;28;20045;-75
2022/06/23 07:33:56;;;;;;;13.80;4.00;;;;;;;25.05;50.25;100761.59;5045785;28;20049;-75
2022/06/23 07:36:32;;;;;;;15.85;4.28;;;;;;;25.18;50.35;100762.00;5045922;28;20604;-76
2022/06/23 07:39:07;;;;;;;12.05;4.00;;;;;;;25.38;50.33;100768.97;5047077;28;20048;-74
2022/06/23 07:41:42;;;;;;;14.98;4.20;;;;;;;25.49;49.72;100761.38;5045251;28;20073;-75
2022/06/23 07:44:22;;;;;;;10.20;3.72;;;;;;;25.64;49.65;100761.28;5042951;28;20071;-75
2022/06/23 07:46:48;;;;;;;11.13;4.38;;;;;;;25.74;49.16;100759.81;5042644;28;20068;-76
2022/06/23 07:49:25;;;;;;;11.70;4.22;;;;;;;25.85;48.79;100763.53;5042440;28;20135;-75
2022/06/23 07:51:54;;;;;;;15.23;4.18;;;;;;;25.92;48.94;100754.56;5045898;28;20513;-73
2022/06/23 07:54:23;;;;;;;10.95;3.85;;;;;;;26.02;49.04;100753.13;5041992;28;20073;-70
2022/06/23 07:56:50;;;;;;;13.02;3.92;;;;;;;26.16;49.04;100754.28;5044253;28;20048;-74
2022/06/23 07:59:21;;;;;;;14.00;4.50;;;;;;;26.28;49.22;100753.88;5041965;28;20132;-74
2022/06/23 08:01:54;;;;;;;14.35;4.70;;;;;;;26.41;48.86;100754.22;5046354;28;20114;-75
2022/06/23 08:04:31;;;;;;;10.02;4.10;;;;;;;26.47;48.68;100749.38;5040833;28;20060;-74
2022/06/23 08:07:02;;;;;;;10.45;4.63;;;;;;;26.59;48.46;100755.91;5043937;28;20056;-77
2022/06/23 08:09:37;;;;;;;12.55;4.10;;;;;;;26.64;48.38;100749.50;5040162;28;20077;-75
2022/06/23 08:17:48;;;;;;;13.35;4.57;;;;;;;26.97;48.06;100746.84;5048803;28;20170;-77
2022/06/23 08:20:18;;;;;;;10.50;4.25;;;;;;;27.10;48.00;100732.94;5049143;28;20164;-78
2022/06/23 08:22:46;;;;;;;12.35;4.15;;;;;;;27.26;48.06;100735.09;5040308;28;20045;-76
2022/06/23 08:25:15;;;;;;;12.85;4.65;;;;;;;27.44;47.88;100735.38;5047669;28;20050;-74
2022/06/23 08:27:55;;;;;;;18.65;4.93;;;;;;;27.60;47.12;100731.03;5043179;28;20107;-75
2022/06/23 08:30:23;;;;;;;12.43;5.00;;;;;;;27.73;47.05;100731.31;5036538;28;20193;-73
2022/06/23 08:32:52;;;;;;;9.60;4.22;;;;;;;27.87;46.47;100732.41;5041168;28;20049;-72
2022/06/23 08:35:41;;;;;;;11.77;4.72;;;;;;;27.83;45.95;100724.09;5041505;28;20120;-73
2022/06/23 08:38:10;;;;;;;8.80;4.07;;;;;;;27.81;46.17;100726.69;5037805;28;20083;-75
2022/06/23 08:41:02;;;;;;;14.07;5.05;;;;;;;28.01;45.85;100722.84;5040200;28;20087;-75
2022/06/23 08:43:40;;;;;;;14.52;5.55;;;;;;;28.12;45.27;100717.91;5047963;28;20625;-75
2022/06/23 08:46:25;;;;;;;10.80;4.15;;;;;;;28.16;45.09;100717.63;5039401;28;20512;-75
2022/06/23 08:48:52;;;;;;;;;;;;;;;28.45;45.33;100719.97;5043876;28;20057;-76
2022/06/23 08:51:43;;;;;;;15.13;4.78;;;;;;;28.71;44.69;100715.47;5040645;28;19921;-77
2022/06/23 08:54:49;;;;;;;10.13;4.40;;;;;;;28.89;44.20;100720.59;5040150;28;20048;-74
2022/06/23 08:57:24;;;;;;;15.10;5.57;;;;;;;29.10;44.28;100719.00;5042117;28;20469;-75
2022/06/23 08:59:56;;;;;;;15.27;4.65;;;;;;;29.31;43.84;100720.16;5036539;28;20072;-73
2022/06/23 09:02:44;;;;;;;12.05;4.88;;;;;;;29.43;43.45;100715.94;5036910;28;20077;-75
2022/06/23 09:05:36;;;;;;;16.45;4.57;;;;;;;29.56;43.22;100710.41;5036824;28;20045;-76
2022/06/23 09:08:21;;;;;;;11.60;4.80;;;;;;;29.69;43.37;100713.47;5035299;28;20474;-75
2022/06/23 09:11:18;;;;;;;12.55;4.40;;;;;;;29.81;42.78;100707.66;5036597;28;20536;-76
2022/06/23 09:13:54;;;;;;;13.00;4.53;;;;;;;29.93;42.74;100704.19;5041587;28;20509;-76
2022/06/23 09:16:33;;;;;;;15.80;5.40;;;;;;;29.98;42.56;100706.25;5051332;28;20136;-76
2022/06/23 09:19:35;;;;;;;12.93;5.15;;;;;;;30.07;42.10;100703.06;5041721;28;20508;-77
2022/06/23 09:22:21;;;;;;;8.18;4.32;;;;;;;30.16;41.81;100705.53;5037532;28;20057;-78
2022/06/23 09:24:50;;;;;;;12.60;4.85;;;;;;;30.19;41.53;100704.50;5043653;28;20210;-77
2022/06/23 09:27:41;;;;;;;10.73;4.60;;;;;;;30.29;40.71;100702.06;5044372;28;20562;-77
2022/06/23 09:30:28;;;;;;;11.85;4.90;;;;;;;30.37;39.93;100692.38;5047292;28;20140;-77
2022/06/23 09:32:57;;;;;;;13.18;4.68;;;;;;;30.46;40.50;100691.25;5041443;28;20049;-79
2022/06/23 09:35:42;;;;;;;9.90;4.35;;;;;;;30.56;40.06;100689.59;5047181;28;20048;-79
2022/06/23 09:38:27;;;;;;;9.68;4.25;;;;;;;30.72;38.76;100686.59;5036646;28;20046;-77
2022/06/23 09:41:00;;;;;;;8.73;4.07;;;;;;;30.79;37.35;100688.81;5048053;28;20057;-74
2022/06/23 09:43:35;;;;;;;7.00;3.53;;;;;;;30.87;36.40;100683.28;5045944;28;20102;-76
2022/06/23 09:46:05;;;;;;;10.57;3.97;;;;;;;30.99;36.22;100685.47;5041399;28;20132;-76
2022/06/23 09:48:58;;;;;;;7.68;3.70;;;;;;;31.09;34.62;100694.41;5050474;28;20050;-77
2022/06/23 09:51:44;;;;;;;9.20;3.47;;;;;;;31.12;35.20;100688.41;5056579;28;20056;-77
2022/06/23 09:54:39;;;;;;;5.65;3.53;;;;;;;31.13;33.16;100697.72;5052411;28;20075;-78
2022/06/23 09:57:28;;;;;;;9.98;4.35;;;;;;;31.23;34.45;100687.44;5045130;28;20463;-77
2022/06/23 10:00:19;;;;;;;8.23;4.10;;;;;;;31.38;33.80;100684.94;5051178;28;20670;-78
2022/06/23 10:02:46;;;;;;;7.88;3.90;;;;;;;31.49;34.45;100687.63;5036124;28;20136;-78
2022/06/23 10:05:50;;;;;;;8.90;3.75;;;;;;;31.46;33.25;100680.13;5011351;28;20051;-82
2022/06/23 10:08:44;;;;;;;9.63;3.88;;;;;;;31.53;33.00;100677.44;5026311;28;20061;-78
2022/06/23 10:11:20;;;;;;;5.95;2.90;;;;;;;31.32;32.23;100685.00;5012775;28;20871;-79
2022/06/23 10:14:11;;;;;;;10.82;4.13;;;;;;;31.48;33.11;100683.19;5011042;28;20662;-76
2022/06/23 10:16:40;;;;;;;7.90;3.80;;;;;;;31.63;32.83;100677.78;5014433;28;20053;-77
2022/06/23 10:19:25;;;;;;;12.90;4.25;;;;;;;31.80;32.56;100675.44;5013646;28;20256;-76
2022/06/23 10:21:52;;;;;;;;;;;;;;;31.78;32.71;100678.81;5014822;28;20916;-76
2022/06/23 10:24:34;;;;;;;3.83;2.42;;;;;;;31.52;31.11;100670.13;5021808;28;20070;-76
2022/06/23 10:27:21;;;;;;;14.88;4.03;;;;;;;31.84;30.73;100679.53;5027169;28;20748;-79
2022/06/23 10:30:12;;;;;;;10.38;3.42;;;;;;;31.66;31.19;100668.13;5013554;28;20044;-76
2022/06/23 10:33:08;;;;;;;7.80;3.38;;;;;;;32.00;31.80;100669.13;5030497;28;20838;-76
2022/06/23 10:36:04;;;;;;;4.00;2.65;;;;;;;31.84;31.35;100679.53;5017056;28;20454;-79
2022/06/23 10:38:42;;;;;;;7.97;3.78;;;;;;;31.91;30.58;100660.94;5027931;28;20061;-77
2022/06/23 10:41:24;;;;;;;8.15;3.67;;;;;;;31.94;30.79;100651.28;5019502;28;20053;-77
2022/06/23 10:44:02;;;;;;;8.98;3.75;;;;;;;32.28;31.33;100649.34;5014872;28;20056;-76
2022/06/23 10:46:41;;;;;;;6.35;3.15;;;;;;;32.19;30.88;100658.34;5013016;28;20059;-76
2022/06/23 10:49:27;;;;;;;6.32;3.67;;;;;;;32.47;30.92;100655.78;5012847;28;20059;-76
2022/06/23 10:51:59;;;;;;;;;;;;;;;32.53;30.67;100642.09;5012470;28;20132;-77
2022/06/23 10:54:32;;;;;;;8.07;2.90;;;;;;;32.46;30.42;100648.47;5013677;28;19929;-78
2022/06/23 10:57:28;;;;;;;7.25;3.75;;;;;;;32.51;30.24;100641.88;5030957;28;20049;-78
2022/06/23 11:00:17;;;;;;;7.60;3.50;;;;;;;32.58;30.63;100644.09;5013879;28;20923;-78
2022/06/23 11:02:46;;;;;;;10.32;4.55;;;;;;;32.41;30.57;100637.91;5013700;28;20044;-76
2022/06/23 11:05:35;;;;;;;10.48;3.78;;;;;;;32.47;29.79;100641.44;5013619;28;20060;-76
2022/06/23 11:08:43;;;;;;;7.57;3.80;;;;;;;32.69;29.65;100635.25;5010257;28;20049;-76
2022/06/23 11:11:34;;;;;;;8.43;4.10;;;;;;;32.68;29.16;100633.72;4999442;28;20152;-76
2022/06/23 11:14:29;;;;;;;7.85;3.63;;;;;;;33.00;29.48;100636.44;5034628;28;20953;-75
2022/06/23 11:17:51;;;;;;;11.73;3.60;;;;;;;33.40;28.77;100638.63;5020427;28;20045;-76
2022/06/23 11:20:39;;;;;;;9.73;3.97;;;;;;;33.49;29.12;100628.78;4962467;28;20182;-75
2022/06/23 11:23:18;;;;;;;5.90;3.85;;;;;;;33.51;28.57;100626.88;5051178;28;20090;-75
2022/06/23 11:25:53;;;;;;;8.10;3.17;;;;;;;33.30;28.61;100633.94;5021762;28;20575;-77
2022/06/23 11:28:50;;;;;;;3.65;2.85;;;;;;;32.99;28.64;100623.41;5018988;28;20052;-76
2022/06/23 11:31:36;;;;;;;7.22;3.60;;;;;;;33.41;29.04;100619.34;5020899;28;20166;-75
2022/06/23 11:34:21;;;;;;;7.18;3.45;;;;;;;33.88;28.50;100615.00;5022655;28;20049;-77
2022/06/23 11:36:51;;;;;;;5.93;3.10;;;;;;;33.91;28.13;100616.75;5021211;28;20048;-75
2022/06/23 11:39:41;;;;;;;9.00;4.25;;;;;;;34.03;27.51;100623.75;5024817;28;20868;-75
2022/06/23 11:42:13;;;;;;;7.70;3.58;;;;;;;34.00;27.73;100624.09;5026137;28;20052;-76
2022/06/23 11:44:55;;;;;;;8.55;3.75;;;;;;;34.39;28.06;100617.31;5021248;28;20787;-75
2022/06/23 11:47:36;;;;;;;2.83;2.13;;;;;;;34.35;27.34;100599.69;5028728;28;20052;-76
2022/06/23 11:50:05;;;;;;;6.88;3.58;;;;;;;34.78;26.20;100605.47;5019410;28;20048;-75
2022/06/23 11:53:08;;;;;;;7.13;4.28;;;;;;;35.39;26.66;100592.84;5018223;28;20140;-77
2022/06/23 11:55:48;;;;;;;6.97;3.50;;;;;;;35.60;25.68;100593.44;5019942;28;20046;-76
2022/06/23 11:58:28;;;;;;;8.23;3.40;;;;;;;35.56;25.45;100595.91;5018305;28;20135;-76
2022/06/23 12:01:17;;;;;;;8.18;3.00;;;;;;;35.40;25.35;100588.59;5023580;28;20047;-75
2022/06/23 12:04:25;;;;;;;8.18;3.42;;;;;;;35.39;25.68;100598.59;5020524;28;20051;-76
2022/06/23 12:07:22;;;;;;;4.95;3.25;;;;;;;35.13;25.80;100596.00;5017478;28;20556;-76
2022/06/23 12:10:17;;;;;;;4.82;2.17;;;;;;;34.99;26.17;100583.88;5020844;28;20059;-76
2022/06/23 12:12:47;;;;;;;6.45;3.13;;;;;;;35.68;25.37;100576.91;5022779;28;20045;-76
2022/06/23 12:15:20;;;;;;;7.63;3.67;;;;;;;36.04;24.93;100586.13;5025928;28;20332;-75
2022/06/23 12:17:51;;;;;;;9.20;4.32;;;;;;;36.36;25.19;100589.16;5022877;28;20076;-76
2022/06/23 12:20:20;;;;;;;7.82;3.10;;;;;;;36.94;24.92;100591.66;5023028;28;20048;-78
2022/06/23 12:23:05;;;;;;;6.93;3.22;;;;;;;37.25;23.70;100583.63;5026600;28;20501;-78
2022/06/23 12:25:37;;;;;;;6.15;3.17;;;;;;;37.74;24.26;100575.75;5022006;28;20049;-77
2022/06/23 12:28:35;;;;;;;6.95;2.83;;;;;;;37.78;23.19;100573.22;5021765;28;20052;-76